Terminal Aerodrome Forecast
Issued by NWS Jackson, MS

Home | Current Version | Previous Version | Text Only | Print | Product List | Glossary On
Versions: 1 2 3 4 5 6 7 8 9 10 11 12 13 14 15 16 17 18 19 20 21 22 23 24
156
FTUS44 KJAN 301746 RRA
TAFGWO
TAF
KGWO 301746Z 3018/3118 28007KT P6SM VCSH FEW030 SCT050
     FM310100 22003KT P6SM FEW050
     FM311000 21003KT 5SM BR FEW015
     FM311500 25005KT P6SM FEW020 SCT030=

USA.gov is the U.S. government's official web portal to all federal, state and local government web resources and services.